createdAt,value
2018-05-18T00:00:01.317Z,12.10
2018-05-18T00:02:28.772Z,11.60
2018-05-18T00:04:57.024Z,13.20
2018-05-18T00:07:24.492Z,11.13
2018-05-18T00:09:52.045Z,12.00
2018-05-18T00:12:19.508Z,11.83
2018-05-18T00:14:46.960Z,12.10
2018-05-18T00:17:14.427Z,12.37
2018-05-18T00:19:41.900Z,11.27
2018-05-18T00:22:09.369Z,11.20
2018-05-18T00:24:36.829Z,10.40
2018-05-18T00:27:04.317Z,10.73
2018-05-18T00:29:31.818Z,10.87
2018-05-18T00:31:59.328Z,10.77
2018-05-18T00:34:26.784Z,10.97
2018-05-18T00:36:54.248Z,11.20
2018-05-18T00:39:21.707Z,11.20
2018-05-18T00:41:49.268Z,11.67
2018-05-18T00:44:16.769Z,11.73
2018-05-18T00:46:44.229Z,11.50
2018-05-18T00:49:12.448Z,12.00
2018-05-18T00:51:39.986Z,11.60
2018-05-18T00:54:07.452Z,12.23
2018-05-18T00:56:34.911Z,11.13
2018-05-18T00:59:02.377Z,12.70
2018-05-18T01:01:30.608Z,12.17
2018-05-18T01:03:58.068Z,12.23
2018-05-18T01:06:26.292Z,12.50
2018-05-18T01:08:53.756Z,12.70
2018-05-18T01:11:21.976Z,12.33
2018-05-18T01:13:49.481Z,12.33
2018-05-18T01:16:16.965Z,12.23
2018-05-18T01:18:44.445Z,12.90
2018-05-18T01:21:11.944Z,12.60
2018-05-18T01:23:39.412Z,12.10
2018-05-18T01:26:07.430Z,12.37
2018-05-18T01:28:34.912Z,12.27
2018-05-18T01:31:02.372Z,12.17
2018-05-18T01:33:29.843Z,12.37
2018-05-18T01:35:57.304Z,13.50
2018-05-18T01:38:25.532Z,12.20
2018-05-18T01:40:53.035Z,12.10
2018-05-18T01:43:20.541Z,12.47
2018-05-18T01:45:48.032Z,12.57
2018-05-18T01:48:15.501Z,11.80
2018-05-18T01:50:42.960Z,13.37
2018-05-18T01:53:10.425Z,12.53
2018-05-18T01:55:38.676Z,12.63
2018-05-18T01:58:06.182Z,13.67
2018-05-18T02:00:35.154Z,12.93
2018-05-18T02:03:02.620Z,12.63
2018-05-18T02:05:30.080Z,12.07
2018-05-18T02:07:59.069Z,13.37
2018-05-18T02:10:26.536Z,12.37
2018-05-18T02:12:54.001Z,13.60
2018-05-18T02:15:21.524Z,12.97
2018-05-18T02:17:48.988Z,11.93
2018-05-18T02:20:16.536Z,12.50
2018-05-18T02:22:44.760Z,12.70
2018-05-18T02:25:12.229Z,11.30
2018-05-18T02:27:40.555Z,12.00
2018-05-18T02:30:08.782Z,11.80
2018-05-18T02:32:36.287Z,12.50
2018-05-18T02:35:04.532Z,12.53
2018-05-18T02:37:31.994Z,11.53
2018-05-18T02:40:00.240Z,12.10
2018-05-18T02:42:27.829Z,12.53
2018-05-18T02:44:55.295Z,12.20
2018-05-18T02:47:22.752Z,12.47
2018-05-18T02:49:50.978Z,11.70
2018-05-18T02:52:18.488Z,12.40
2018-05-18T02:54:45.909Z,12.70
2018-05-18T02:57:13.461Z,12.57
2018-05-18T02:59:40.951Z,12.83
2018-05-18T03:02:08.472Z,12.60
2018-05-18T03:04:36.737Z,13.03
2018-05-18T03:07:04.216Z,12.03
2018-05-18T03:09:31.682Z,12.00
2018-05-18T03:11:59.297Z,11.73
2018-05-18T03:14:26.833Z,13.40
2018-05-18T03:16:55.060Z,11.80
2018-05-18T03:19:22.577Z,12.37
2018-05-18T03:21:50.053Z,12.83
2018-05-18T03:24:17.512Z,11.87
2018-05-18T03:26:44.982Z,11.50
2018-05-18T03:29:13.213Z,12.20
2018-05-18T03:31:40.733Z,12.20
2018-05-18T03:34:08.201Z,10.83
2018-05-18T03:36:35.669Z,12.00
2018-05-18T03:39:03.133Z,11.23
2018-05-18T03:41:31.369Z,12.30
2018-05-18T03:43:58.829Z,12.03
2018-05-18T03:46:27.052Z,12.27
2018-05-18T03:48:54.509Z,11.90
2018-05-18T03:51:22.065Z,12.33
2018-05-18T03:53:49.548Z,11.43
2018-05-18T03:56:17.024Z,12.50
2018-05-18T03:58:44.512Z,10.90
2018-05-18T04:01:24.116Z,11.33
2018-05-18T04:04:03.707Z,12.13
2018-05-18T04:06:43.781Z,11.40
2018-05-18T04:09:11.346Z,10.37
2018-05-18T04:11:38.809Z,10.87
2018-05-18T04:14:06.410Z,12.20
2018-05-18T04:16:33.871Z,11.80
2018-05-18T04:19:01.333Z,11.50
2018-05-18T04:21:29.558Z,11.60
2018-05-18T04:23:57.079Z,11.27
2018-05-18T04:26:24.536Z,11.13
2018-05-18T04:28:52.007Z,11.70
2018-05-18T04:31:19.518Z,10.40
2018-05-18T04:33:46.980Z,10.83
2018-05-18T04:36:14.441Z,10.47
2018-05-18T04:38:42.720Z,11.37
2018-05-18T04:41:10.181Z,10.47
2018-05-18T04:43:37.788Z,11.07
2018-05-18T04:46:05.252Z,10.83
2018-05-18T04:48:32.749Z,10.60
2018-05-18T04:51:00.317Z,10.70
2018-05-18T04:53:27.696Z,10.57
2018-05-18T04:55:55.220Z,10.90
2018-05-18T04:58:22.685Z,11.50
2018-05-18T05:00:50.149Z,11.10
2018-05-18T05:03:18.376Z,11.40
2018-05-18T05:05:45.837Z,11.73
2018-05-18T05:08:13.296Z,11.90
2018-05-18T05:10:40.800Z,12.27
2018-05-18T05:13:08.256Z,12.13
2018-05-18T05:15:35.772Z,13.03
2018-05-18T05:18:03.233Z,13.63
2018-05-18T05:20:30.694Z,12.47
2018-05-18T05:22:58.949Z,13.27
2018-05-18T05:25:26.411Z,12.27
2018-05-18T05:27:53.872Z,12.17
2018-05-18T05:30:22.189Z,13.03
2018-05-18T05:32:49.613Z,13.37
2018-05-18T05:35:17.075Z,14.40
2018-05-18T05:37:44.600Z,13.33
2018-05-18T05:40:12.057Z,13.50
2018-05-18T05:42:39.527Z,13.27
2018-05-18T05:45:07.774Z,14.57
2018-05-18T05:47:35.251Z,13.77
2018-05-18T05:50:02.746Z,14.63
2018-05-18T05:52:30.204Z,13.80
2018-05-18T05:54:57.714Z,13.13
2018-05-18T05:57:25.179Z,14.87
2018-05-18T05:59:52.691Z,13.33
2018-05-18T06:02:20.158Z,12.73
2018-05-18T06:04:47.649Z,13.90
2018-05-18T06:07:15.145Z,12.70
2018-05-18T06:09:42.607Z,13.70
2018-05-18T06:12:10.138Z,12.90
2018-05-18T06:14:37.598Z,12.97
2018-05-18T06:17:05.129Z,12.30
2018-05-18T06:19:33.446Z,11.67
2018-05-18T06:22:00.877Z,13.43
2018-05-18T06:24:28.366Z,11.90
2018-05-18T06:26:55.847Z,12.00
2018-05-18T06:29:23.308Z,12.37
2018-05-18T06:31:50.808Z,11.20
2018-05-18T06:34:18.270Z,11.90
2018-05-18T06:36:45.761Z,10.70
2018-05-18T06:39:13.264Z,11.97
2018-05-18T06:41:40.765Z,10.87
2018-05-18T06:44:08.269Z,11.30
2018-05-18T06:46:35.765Z,11.13
2018-05-18T06:49:03.229Z,10.27
2018-05-18T06:51:30.738Z,10.60
2018-05-18T06:53:58.256Z,10.70
2018-05-18T06:56:25.720Z,10.83
2018-05-18T06:58:53.383Z,11.03
2018-05-18T07:01:20.774Z,10.47
2018-05-18T07:03:49.029Z,10.50
2018-05-18T07:06:16.544Z,10.60
2018-05-18T07:08:44.011Z,10.30
2018-05-18T07:11:12.293Z,11.37
2018-05-18T07:13:39.760Z,11.33
2018-05-18T07:16:08.737Z,10.43
2018-05-18T07:18:36.197Z,9.83
2018-05-18T07:21:03.756Z,10.40
2018-05-18T07:23:31.277Z,10.43
2018-05-18T07:25:58.784Z,9.70
2018-05-18T07:28:26.297Z,9.80
2018-05-18T07:30:53.801Z,10.40
2018-05-18T07:33:21.325Z,9.33
2018-05-18T07:35:48.822Z,8.77
2018-05-18T07:38:16.693Z,7.97
2018-05-18T07:40:44.196Z,8.27
2018-05-18T07:43:11.681Z,9.18
2018-05-18T07:45:39.980Z,9.48
2018-05-18T07:48:07.449Z,8.43
2018-05-18T07:50:34.935Z,9.82
2018-05-18T07:53:02.411Z,7.78
2018-05-18T07:55:29.882Z,9.85
2018-05-18T07:57:57.396Z,9.10
2018-05-18T08:00:24.885Z,8.65
2018-05-18T08:02:52.349Z,8.90
2018-05-18T08:05:19.812Z,8.38
2018-05-18T08:07:47.358Z,9.38
2018-05-18T08:10:14.806Z,7.15
2018-05-18T08:12:42.276Z,7.35
2018-05-18T08:15:09.760Z,7.65
2018-05-18T08:17:37.260Z,8.48
2018-05-18T08:20:04.741Z,9.18
2018-05-18T08:22:32.233Z,8.60
2018-05-18T08:24:59.813Z,8.00
2018-05-18T08:27:28.121Z,8.30
2018-05-18T08:29:55.582Z,8.18
2018-05-18T08:32:23.080Z,9.23
2018-05-18T08:34:50.566Z,8.93
2018-05-18T08:37:18.047Z,8.45
2018-05-18T08:39:45.510Z,9.48
2018-05-18T08:42:13.022Z,8.35
2018-05-18T08:44:40.497Z,8.52
2018-05-18T08:47:07.973Z,8.85
2018-05-18T08:49:35.478Z,9.35
2018-05-18T08:52:02.952Z,8.68
2018-05-18T08:54:30.418Z,8.43
2018-05-18T08:56:57.916Z,9.43
2018-05-18T08:59:25.384Z,8.90
2018-05-18T09:01:52.886Z,8.90
2018-05-18T09:04:20.360Z,8.75
2018-05-18T09:06:47.824Z,9.57
2018-05-18T09:09:15.351Z,9.90
2018-05-18T09:11:42.816Z,9.43
2018-05-18T09:14:10.329Z,9.00
2018-05-18T09:16:37.806Z,9.30
2018-05-18T09:19:05.294Z,7.10
2018-05-18T09:21:32.776Z,9.00
2018-05-18T09:24:00.245Z,8.77
2018-05-18T09:26:28.504Z,8.55
2018-05-18T09:28:55.982Z,9.00
2018-05-18T09:31:23.476Z,8.82
2018-05-18T09:33:51.028Z,8.55
2018-05-18T09:36:18.442Z,8.40
2018-05-18T09:38:45.909Z,7.78
2018-05-18T09:41:13.385Z,8.50
2018-05-18T09:43:40.893Z,8.85
2018-05-18T09:46:08.481Z,8.10
2018-05-18T09:48:35.954Z,7.97
2018-05-18T09:51:03.478Z,8.55
2018-05-18T09:53:30.941Z,8.85
2018-05-18T09:55:58.433Z,7.70
2018-05-18T09:58:26.024Z,7.53
2018-05-18T10:00:53.488Z,7.37
2018-05-18T10:03:21.005Z,7.10
2018-05-18T10:05:48.469Z,7.43
2018-05-18T10:08:15.965Z,6.80
2018-05-18T10:10:43.455Z,7.87
2018-05-18T10:13:10.926Z,8.30
2018-05-18T10:15:38.430Z,7.35
2018-05-18T10:18:06.660Z,6.72
2018-05-18T10:20:34.906Z,7.85
2018-05-18T10:23:02.389Z,7.15
2018-05-18T10:25:29.864Z,6.60
2018-05-18T10:27:57.353Z,7.40
2018-05-18T10:30:30.280Z,6.57
2018-05-18T10:32:57.940Z,7.35
2018-05-18T10:35:25.405Z,7.28
2018-05-18T10:37:53.633Z,7.30
2018-05-18T10:40:21.179Z,6.40
2018-05-18T10:42:48.640Z,7.60
2018-05-18T10:45:16.198Z,7.22
2018-05-18T10:47:43.593Z,6.20
2018-05-18T10:50:11.821Z,6.55
2018-05-18T10:52:39.332Z,6.37
2018-05-18T10:55:06.911Z,6.80
2018-05-18T10:57:34.372Z,6.72
2018-05-18T11:00:01.884Z,6.10
2018-05-18T11:02:29.358Z,6.87
2018-05-18T11:04:56.825Z,7.10
2018-05-18T11:07:24.297Z,6.65
2018-05-18T11:09:51.851Z,6.70
2018-05-18T11:12:20.078Z,6.55
2018-05-18T11:14:47.547Z,5.50
2018-05-18T11:17:15.805Z,6.03
2018-05-18T11:19:43.299Z,6.30
2018-05-18T11:22:10.761Z,5.28
2018-05-18T11:24:38.257Z,6.18
2018-05-18T11:27:05.768Z,6.15
2018-05-18T11:29:33.242Z,6.75
2018-05-18T11:32:00.805Z,6.75
2018-05-18T11:34:28.285Z,5.80
2018-05-18T11:36:55.770Z,6.00
2018-05-18T11:39:23.357Z,6.53
2018-05-18T11:41:50.827Z,5.70
2018-05-18T11:44:18.321Z,5.70
2018-05-18T11:46:45.901Z,5.20
2018-05-18T11:49:13.382Z,5.35
2018-05-18T11:51:40.860Z,5.85
2018-05-18T11:54:08.328Z,5.93
2018-05-18T11:56:35.835Z,6.55
2018-05-18T11:59:03.301Z,6.85
2018-05-18T12:01:30.816Z,5.47
2018-05-18T12:03:58.280Z,5.97
2018-05-18T12:06:25.780Z,6.50
2018-05-18T12:08:53.260Z,6.80
2018-05-18T12:11:20.740Z,6.30
2018-05-18T12:13:48.228Z,6.18
2018-05-18T12:16:15.721Z,6.18
2018-05-18T12:18:43.213Z,6.70
2018-05-18T12:21:10.697Z,5.97
2018-05-18T12:23:38.168Z,6.50
2018-05-18T12:26:05.664Z,5.32
2018-05-18T12:28:34.075Z,5.68
2018-05-18T12:31:01.557Z,6.10
2018-05-18T12:33:29.030Z,6.68
2018-05-18T12:35:56.521Z,6.57
2018-05-18T12:38:24.084Z,6.45
2018-05-18T12:40:51.584Z,6.50
2018-05-18T12:43:19.172Z,5.87
2018-05-18T12:45:46.636Z,7.12
2018-05-18T12:48:14.138Z,6.87
2018-05-18T12:50:41.604Z,6.50
2018-05-18T12:53:09.061Z,6.70
2018-05-18T12:55:36.600Z,6.90
2018-05-18T12:58:04.168Z,6.70
2018-05-18T13:00:31.636Z,5.83
2018-05-18T13:02:59.124Z,7.07
2018-05-18T13:05:26.586Z,6.93
2018-05-18T13:07:54.049Z,6.80
2018-05-18T13:10:22.324Z,6.82
2018-05-18T13:12:49.795Z,7.37
2018-05-18T13:15:17.265Z,7.00
2018-05-18T13:17:44.757Z,6.83
2018-05-18T13:20:12.236Z,7.10
2018-05-18T13:22:39.709Z,6.90
2018-05-18T13:25:07.235Z,7.07
2018-05-18T13:27:34.802Z,5.60
2018-05-18T13:30:02.324Z,7.30
2018-05-18T13:32:29.780Z,6.53
2018-05-18T13:34:57.368Z,7.10
2018-05-18T13:37:24.833Z,9.27
2018-05-18T13:39:52.298Z,9.07
2018-05-18T13:42:20.524Z,8.10
2018-05-18T13:44:48.043Z,7.67
2018-05-18T13:47:15.517Z,10.60
2018-05-18T13:49:43.007Z,10.47
2018-05-18T13:52:10.466Z,6.70
2018-05-18T13:54:38.700Z,6.70
2018-05-18T13:57:06.742Z,7.70
2018-05-18T13:59:34.206Z,6.77
2018-05-18T14:02:01.696Z,8.27
2018-05-18T14:04:29.181Z,7.17
2018-05-18T14:06:56.667Z,6.10
2018-05-18T14:09:24.141Z,7.10
2018-05-18T14:11:51.613Z,11.07
2018-05-18T14:14:19.734Z,10.20
2018-05-18T14:16:48.511Z,7.10
2018-05-18T14:19:16.244Z,6.63
2018-05-18T14:21:44.454Z,6.60
2018-05-18T14:24:11.932Z,7.50
2018-05-18T14:26:40.186Z,6.70
2018-05-18T14:29:08.246Z,7.10
2018-05-18T14:31:37.526Z,6.10
2018-05-18T14:34:05.001Z,6.93
2018-05-18T14:36:32.487Z,6.53
2018-05-18T14:38:59.988Z,9.50
2018-05-18T14:41:27.484Z,7.63
2018-05-18T14:43:55.064Z,7.07
2018-05-18T14:46:23.268Z,7.07
2018-05-18T14:48:50.726Z,6.33
2018-05-18T14:51:18.253Z,6.00
2018-05-18T14:53:45.811Z,6.37
2018-05-18T14:56:14.076Z,8.93
2018-05-18T14:58:41.552Z,7.23
2018-05-18T15:01:09.017Z,6.00
2018-05-18T15:03:36.542Z,7.53
2018-05-18T15:06:04.005Z,6.93
2018-05-18T15:08:31.511Z,6.23
2018-05-18T15:10:59.010Z,6.83
2018-05-18T15:13:26.521Z,5.83
2018-05-18T15:15:54.080Z,6.60
2018-05-18T15:18:21.569Z,6.80
2018-05-18T15:20:49.045Z,7.23
2018-05-18T15:23:17.199Z,6.67
2018-05-18T15:25:45.504Z,6.80
2018-05-18T15:28:13.740Z,7.20
2018-05-18T15:30:41.196Z,7.27
2018-05-18T15:33:09.435Z,6.67
2018-05-18T15:35:37.920Z,7.23
2018-05-18T15:38:06.186Z,6.83
2018-05-18T15:40:33.654Z,6.73
2018-05-18T15:43:01.142Z,6.07
2018-05-18T15:45:28.600Z,7.00
2018-05-18T15:47:56.824Z,6.57
2018-05-18T15:50:24.332Z,5.87
2018-05-18T15:52:51.822Z,7.53
2018-05-18T15:55:19.289Z,5.97
2018-05-18T15:57:46.787Z,6.33
2018-05-18T16:00:14.244Z,5.90
2018-05-18T16:02:42.492Z,6.37
2018-05-18T16:05:09.950Z,6.23
2018-05-18T16:07:37.413Z,6.33
2018-05-18T16:10:04.874Z,5.93
2018-05-18T16:12:33.145Z,6.33
2018-05-18T16:15:00.601Z,6.03
2018-05-18T16:17:35.683Z,5.30
2018-05-18T16:20:03.341Z,6.27
2018-05-18T16:22:31.575Z,6.27
2018-05-18T16:24:59.093Z,6.40
2018-05-18T16:27:26.563Z,6.40
2018-05-18T16:29:54.060Z,6.37
2018-05-18T16:32:21.536Z,7.03
2018-05-18T16:34:49.042Z,5.97
2018-05-18T16:37:16.504Z,6.63
2018-05-18T16:39:43.977Z,5.87
2018-05-18T16:42:11.432Z,5.83
2018-05-18T16:44:39.697Z,5.40
2018-05-18T16:47:07.209Z,7.10
2018-05-18T16:49:34.686Z,6.93
2018-05-18T16:52:02.198Z,5.77
2018-05-18T16:54:30.424Z,6.30
2018-05-18T16:56:57.890Z,6.07
2018-05-18T16:59:26.117Z,6.10
2018-05-18T17:01:53.638Z,6.77
2018-05-18T17:04:21.151Z,5.43
2018-05-18T17:06:48.725Z,6.73
2018-05-18T17:09:16.193Z,7.00
2018-05-18T17:11:43.711Z,6.87
2018-05-18T17:14:11.172Z,6.73
2018-05-18T17:16:38.682Z,6.20
2018-05-18T17:19:06.177Z,7.27
2018-05-18T17:21:33.735Z,6.50
2018-05-18T17:24:01.228Z,6.20
2018-05-18T17:26:28.721Z,6.40
2018-05-18T17:28:56.209Z,6.03
2018-05-18T17:31:23.693Z,6.07
2018-05-18T17:33:51.198Z,6.67
2018-05-18T17:36:18.720Z,7.13
2018-05-18T17:38:46.283Z,7.23
2018-05-18T17:41:13.756Z,7.30
2018-05-18T17:43:41.236Z,6.70
2018-05-18T17:46:08.696Z,6.97
2018-05-18T17:48:36.172Z,7.13
2018-05-18T17:51:03.688Z,7.50
2018-05-18T17:53:31.140Z,6.60
2018-05-18T17:55:58.600Z,6.90
2018-05-18T17:58:26.850Z,6.83
2018-05-18T18:00:54.305Z,6.60
2018-05-18T18:03:21.790Z,6.80
2018-05-18T18:05:50.049Z,7.17
2018-05-18T18:08:17.508Z,7.73
2018-05-18T18:10:44.969Z,7.37
2018-05-18T18:13:13.209Z,8.63
2018-05-18T18:15:40.670Z,7.90
2018-05-18T18:18:08.194Z,7.03
2018-05-18T18:20:36.458Z,7.67
2018-05-18T18:23:03.929Z,7.33
2018-05-18T18:25:32.853Z,6.50
2018-05-18T18:28:00.964Z,7.07
2018-05-18T18:30:28.526Z,7.20
2018-05-18T18:32:58.426Z,6.30
2018-05-18T18:35:26.039Z,6.73
2018-05-18T18:37:53.531Z,7.73
2018-05-18T18:40:21.095Z,7.73
2018-05-18T18:42:48.627Z,6.93
2018-05-18T18:45:16.936Z,7.83
2018-05-18T18:47:45.248Z,7.80
2018-05-18T18:50:12.836Z,7.83
2018-05-18T18:52:40.362Z,8.00
2018-05-18T18:55:07.825Z,8.20
2018-05-18T18:57:35.376Z,8.20
2018-05-18T19:00:03.078Z,8.43
2018-05-18T19:02:30.584Z,8.37
2018-05-18T19:04:58.262Z,9.10
2018-05-18T19:07:25.729Z,8.33
2018-05-18T19:09:53.225Z,8.67
2018-05-18T19:12:20.704Z,9.37
2018-05-18T19:14:48.189Z,8.60
2018-05-18T19:17:15.674Z,9.30
2018-05-18T19:19:43.129Z,8.77
2018-05-18T19:22:10.625Z,9.23
2018-05-18T19:24:38.095Z,8.83
2018-05-18T19:27:05.600Z,8.93
2018-05-18T19:29:34.750Z,8.33
2018-05-18T19:32:02.461Z,8.20
2018-05-18T19:34:30.767Z,8.40
2018-05-18T19:36:58.991Z,9.10
2018-05-18T19:39:26.452Z,8.90
2018-05-18T19:41:53.985Z,8.40
2018-05-18T19:44:21.445Z,8.47
2018-05-18T19:46:49.672Z,9.00
2018-05-18T19:49:17.379Z,8.87
2018-05-18T19:51:44.853Z,9.10
2018-05-18T19:54:13.081Z,9.37
2018-05-18T19:56:40.546Z,9.00
2018-05-18T19:59:08.002Z,9.30
2018-05-18T20:01:35.472Z,9.10
2018-05-18T20:04:02.932Z,8.70
2018-05-18T20:06:30.441Z,9.23
2018-05-18T20:08:57.897Z,9.13
2018-05-18T20:11:25.431Z,9.47
2018-05-18T20:13:52.985Z,9.50
2018-05-18T20:16:20.438Z,9.43
2018-05-18T20:18:47.968Z,9.53
2018-05-18T20:21:15.448Z,10.00
2018-05-18T20:23:42.913Z,10.00
2018-05-18T20:26:10.370Z,9.97
2018-05-18T20:28:37.861Z,10.83
2018-05-18T20:31:05.378Z,10.67
2018-05-18T20:33:32.861Z,10.63
2018-05-18T20:36:00.320Z,10.93
2018-05-18T20:38:28.562Z,10.80
2018-05-18T20:40:56.065Z,10.70
2018-05-18T20:43:23.549Z,11.10
2018-05-18T20:45:51.029Z,10.97
2018-05-18T20:48:18.497Z,10.80
2018-05-18T20:50:45.996Z,10.53
2018-05-18T20:53:13.491Z,11.43
2018-05-18T20:55:40.948Z,11.00
2018-05-18T20:58:08.467Z,11.40
2018-05-18T21:00:35.957Z,10.50
2018-05-18T21:03:03.495Z,10.63
2018-05-18T21:05:31.777Z,11.67
2018-05-18T21:07:59.813Z,12.23
2018-05-18T21:10:27.277Z,12.07
2018-05-18T21:12:55.570Z,11.90
2018-05-18T21:15:23.836Z,12.73
2018-05-18T21:17:51.295Z,12.57
2018-05-18T21:20:18.798Z,12.90
2018-05-18T21:22:46.264Z,13.07
2018-05-18T21:25:13.729Z,12.80
2018-05-18T21:27:41.184Z,14.07
2018-05-18T21:30:08.652Z,13.27
2018-05-18T21:32:36.116Z,13.03
2018-05-18T21:35:03.564Z,13.10
2018-05-18T21:37:31.090Z,12.80
2018-05-18T21:39:58.608Z,11.93
2018-05-18T21:42:26.063Z,12.33
2018-05-18T21:44:53.520Z,13.50
2018-05-18T21:47:20.980Z,12.00
2018-05-18T21:49:49.249Z,12.17
2018-05-18T21:52:16.719Z,13.53
2018-05-18T21:54:44.186Z,13.17
2018-05-18T21:57:12.418Z,13.67
2018-05-18T21:59:39.925Z,13.40
2018-05-18T22:02:07.398Z,12.70
2018-05-18T22:04:34.882Z,13.23
2018-05-18T22:07:02.345Z,13.37
2018-05-18T22:09:29.806Z,13.00
2018-05-18T22:11:58.052Z,13.63
2018-05-18T22:14:25.537Z,12.63
2018-05-18T22:16:53.013Z,13.13
2018-05-18T22:19:20.469Z,12.90
2018-05-18T22:21:47.925Z,12.20
2018-05-18T22:24:15.457Z,12.73
2018-05-18T22:26:43.680Z,12.67
2018-05-18T22:29:11.203Z,12.00
2018-05-18T22:31:38.669Z,11.87
2018-05-18T22:34:06.134Z,12.33
2018-05-18T22:36:33.640Z,12.37
2018-05-18T22:39:01.179Z,11.67
2018-05-18T22:41:29.423Z,12.77
2018-05-18T22:43:56.885Z,12.33
2018-05-18T22:46:24.413Z,11.60
2018-05-18T22:48:52.020Z,12.37
2018-05-18T22:51:19.582Z,12.03
2018-05-18T22:53:47.060Z,12.90
2018-05-18T22:56:14.525Z,12.50
2018-05-18T22:58:41.988Z,12.67
2018-05-18T23:01:10.336Z,12.80
2018-05-18T23:03:37.833Z,12.67
2018-05-18T23:06:05.310Z,12.90
2018-05-18T23:08:32.798Z,11.33
2018-05-18T23:11:00.276Z,11.73
2018-05-18T23:13:27.734Z,12.67
2018-05-18T23:15:55.255Z,13.53
2018-05-18T23:18:22.728Z,12.33
2018-05-18T23:20:50.189Z,11.87
2018-05-18T23:23:17.696Z,11.97
2018-05-18T23:25:45.235Z,12.00
2018-05-18T23:28:12.677Z,11.57
2018-05-18T23:30:40.158Z,12.20
2018-05-18T23:33:07.620Z,12.07
2018-05-18T23:35:35.132Z,11.63
2018-05-18T23:38:02.589Z,11.53
2018-05-18T23:40:30.052Z,11.30
2018-05-18T23:42:57.601Z,11.77
2018-05-18T23:45:25.060Z,11.63
2018-05-18T23:47:52.569Z,11.90
2018-05-18T23:50:20.048Z,11.90
2018-05-18T23:52:47.532Z,12.00
2018-05-18T23:55:15.074Z,11.90
2018-05-18T23:57:42.536Z,12.03
